sensor_id;sensor_type;location;lat;lon;timestamp;P1;durP1;ratioP1;P2;durP2;ratioP2
26820;SDS011;37186;51.394;5.454;2023-02-15T00:00:38;2.30;;;2.30;;
26820;SDS011;37186;51.394;5.454;2023-02-15T00:03:39;2.50;;;2.50;;
26820;SDS011;37186;51.394;5.454;2023-02-15T00:06:39;2.40;;;2.40;;
26820;SDS011;37186;51.394;5.454;2023-02-15T00:09:40;2.50;;;2.50;;
26820;SDS011;37186;51.394;5.454;2023-02-15T00:12:41;2.40;;;2.40;;
26820;SDS011;37186;51.394;5.454;2023-02-15T00:15:41;2.40;;;2.40;;
26820;SDS011;37186;51.394;5.454;2023-02-15T00:18:42;2.50;;;2.50;;
26820;SDS011;37186;51.394;5.454;2023-02-15T00:21:42;2.50;;;2.50;;
26820;SDS011;37186;51.394;5.454;2023-02-15T00:24:43;2.50;;;2.50;;
26820;SDS011;37186;51.394;5.454;2023-02-15T00:27:44;2.40;;;2.40;;
26820;SDS011;37186;51.394;5.454;2023-02-15T00:30:44;2.70;;;2.70;;
26820;SDS011;37186;51.394;5.454;2023-02-15T00:33:45;2.70;;;2.70;;
26820;SDS011;37186;51.394;5.454;2023-02-15T00:36:45;2.50;;;2.50;;
26820;SDS011;37186;51.394;5.454;2023-02-15T00:39:46;2.80;;;2.70;;
26820;SDS011;37186;51.394;5.454;2023-02-15T00:42:47;2.50;;;2.50;;
26820;SDS011;37186;51.394;5.454;2023-02-15T00:45:47;2.70;;;2.70;;
26820;SDS011;37186;51.394;5.454;2023-02-15T00:48:48;2.40;;;2.40;;
26820;SDS011;37186;51.394;5.454;2023-02-15T00:51:49;2.40;;;2.40;;
26820;SDS011;37186;51.394;5.454;2023-02-15T00:54:50;2.50;;;2.50;;
26820;SDS011;37186;51.394;5.454;2023-02-15T00:57:50;2.40;;;2.40;;
26820;SDS011;37186;51.394;5.454;2023-02-15T01:00:51;2.50;;;2.50;;
26820;SDS011;37186;51.394;5.454;2023-02-15T01:03:52;2.90;;;2.80;;
26820;SDS011;37186;51.394;5.454;2023-02-15T01:06:53;2.90;;;2.80;;
26820;SDS011;37186;51.394;5.454;2023-02-15T01:09:53;2.47;;;2.47;;
26820;SDS011;37186;51.394;5.454;2023-02-15T01:12:54;2.50;;;2.50;;
26820;SDS011;37186;51.394;5.454;2023-02-15T01:15:55;2.90;;;2.80;;
26820;SDS011;37186;51.394;5.454;2023-02-15T01:18:56;2.50;;;2.50;;
26820;SDS011;37186;51.394;5.454;2023-02-15T01:21:57;2.90;;;2.80;;
26820;SDS011;37186;51.394;5.454;2023-02-15T01:24:57;2.50;;;2.50;;
26820;SDS011;37186;51.394;5.454;2023-02-15T01:27:58;2.50;;;2.50;;
26820;SDS011;37186;51.394;5.454;2023-02-15T01:30:58;2.30;;;2.30;;
26820;SDS011;37186;51.394;5.454;2023-02-15T01:33:59;2.50;;;2.50;;
26820;SDS011;37186;51.394;5.454;2023-02-15T01:36:59;2.50;;;2.50;;
26820;SDS011;37186;51.394;5.454;2023-02-15T01:40:00;2.60;;;2.60;;
26820;SDS011;37186;51.394;5.454;2023-02-15T01:43:09;2.60;;;2.60;;
26820;SDS011;37186;51.394;5.454;2023-02-15T01:46:10;2.53;;;2.53;;
26820;SDS011;37186;51.394;5.454;2023-02-15T01:49:15;2.70;;;2.70;;
26820;SDS011;37186;51.394;5.454;2023-02-15T01:52:18;2.87;;;2.77;;
26820;SDS011;37186;51.394;5.454;2023-02-15T01:55:19;2.50;;;2.50;;
26820;SDS011;37186;51.394;5.454;2023-02-15T01:58:22;2.50;;;2.50;;
26820;SDS011;37186;51.394;5.454;2023-02-15T02:01:26;2.70;;;2.70;;
26820;SDS011;37186;51.394;5.454;2023-02-15T02:04:31;2.60;;;2.60;;
26820;SDS011;37186;51.394;5.454;2023-02-15T02:07:43;2.50;;;2.50;;
26820;SDS011;37186;51.394;5.454;2023-02-15T02:10:45;2.50;;;2.50;;
26820;SDS011;37186;51.394;5.454;2023-02-15T02:13:46;2.63;;;2.63;;
26820;SDS011;37186;51.394;5.454;2023-02-15T02:23:16;2.60;;;2.60;;
26820;SDS011;37186;51.394;5.454;2023-02-15T02:30:41;2.50;;;2.50;;
26820;SDS011;37186;51.394;5.454;2023-02-15T02:34:00;2.40;;;2.40;;
26820;SDS011;37186;51.394;5.454;2023-02-15T02:37:19;2.30;;;2.30;;
26820;SDS011;37186;51.394;5.454;2023-02-15T02:40:56;2.30;;;2.30;;
26820;SDS011;37186;51.394;5.454;2023-02-15T02:50:47;2.50;;;2.50;;
26820;SDS011;37186;51.394;5.454;2023-02-15T02:53:49;2.40;;;2.40;;
26820;SDS011;37186;51.394;5.454;2023-02-15T02:56:53;2.40;;;2.40;;
26820;SDS011;37186;51.394;5.454;2023-02-15T02:59:56;2.50;;;2.50;;
26820;SDS011;37186;51.394;5.454;2023-02-15T03:03:01;2.30;;;2.30;;
26820;SDS011;37186;51.394;5.454;2023-02-15T03:06:24;2.40;;;2.40;;
26820;SDS011;37186;51.394;5.454;2023-02-15T03:09:53;2.50;;;2.50;;
26820;SDS011;37186;51.394;5.454;2023-02-15T03:12:56;2.80;;;2.70;;
26820;SDS011;37186;51.394;5.454;2023-02-15T03:15:57;2.50;;;2.50;;
26820;SDS011;37186;51.394;5.454;2023-02-15T03:19:23;2.50;;;2.50;;
26820;SDS011;37186;51.394;5.454;2023-02-15T03:22:36;2.60;;;2.60;;
26820;SDS011;37186;51.394;5.454;2023-02-15T03:25:40;2.70;;;2.70;;
26820;SDS011;37186;51.394;5.454;2023-02-15T03:28:45;2.50;;;2.50;;
26820;SDS011;37186;51.394;5.454;2023-02-15T03:31:50;2.50;;;2.50;;
26820;SDS011;37186;51.394;5.454;2023-02-15T03:34:54;2.50;;;2.50;;
26820;SDS011;37186;51.394;5.454;2023-02-15T03:37:59;2.60;;;2.60;;
26820;SDS011;37186;51.394;5.454;2023-02-15T03:41:01;2.50;;;2.50;;
26820;SDS011;37186;51.394;5.454;2023-02-15T03:44:11;2.60;;;2.60;;
26820;SDS011;37186;51.394;5.454;2023-02-15T03:47:35;2.50;;;2.50;;
26820;SDS011;37186;51.394;5.454;2023-02-15T03:50:38;2.57;;;2.57;;
26820;SDS011;37186;51.394;5.454;2023-02-15T03:53:59;2.50;;;2.50;;
26820;SDS011;37186;51.394;5.454;2023-02-15T03:57:38;2.40;;;2.40;;
26820;SDS011;37186;51.394;5.454;2023-02-15T04:00:58;2.60;;;2.60;;
26820;SDS011;37186;51.394;5.454;2023-02-15T04:04:21;2.50;;;2.50;;
26820;SDS011;37186;51.394;5.454;2023-02-15T04:07:36;2.50;;;2.50;;
26820;SDS011;37186;51.394;5.454;2023-02-15T04:10:37;2.40;;;2.40;;
26820;SDS011;37186;51.394;5.454;2023-02-15T04:13:52;2.40;;;2.40;;
26820;SDS011;37186;51.394;5.454;2023-02-15T04:16:56;2.33;;;2.33;;
26820;SDS011;37186;51.394;5.454;2023-02-15T04:19:57;2.50;;;2.50;;
26820;SDS011;37186;51.394;5.454;2023-02-15T04:23:16;2.10;;;2.10;;
26820;SDS011;37186;51.394;5.454;2023-02-15T04:26:35;2.30;;;2.30;;
26820;SDS011;37186;51.394;5.454;2023-02-15T04:29:36;2.30;;;2.30;;
26820;SDS011;37186;51.394;5.454;2023-02-15T04:32:36;2.37;;;2.37;;
26820;SDS011;37186;51.394;5.454;2023-02-15T04:35:37;2.40;;;2.40;;
26820;SDS011;37186;51.394;5.454;2023-02-15T04:38:37;2.40;;;2.40;;
26820;SDS011;37186;51.394;5.454;2023-02-15T04:41:39;2.73;;;2.70;;
26820;SDS011;37186;51.394;5.454;2023-02-15T04:44:40;2.40;;;2.40;;
26820;SDS011;37186;51.394;5.454;2023-02-15T04:47:40;2.50;;;2.50;;
26820;SDS011;37186;51.394;5.454;2023-02-15T04:50:41;2.40;;;2.40;;
26820;SDS011;37186;51.394;5.454;2023-02-15T04:53:42;2.40;;;2.40;;
26820;SDS011;37186;51.394;5.454;2023-02-15T04:56:42;2.30;;;2.30;;
26820;SDS011;37186;51.394;5.454;2023-02-15T04:59:43;2.50;;;2.50;;
26820;SDS011;37186;51.394;5.454;2023-02-15T05:02:43;2.40;;;2.40;;
26820;SDS011;37186;51.394;5.454;2023-02-15T05:05:44;2.40;;;2.40;;
26820;SDS011;37186;51.394;5.454;2023-02-15T05:08:44;2.50;;;2.50;;
26820;SDS011;37186;51.394;5.454;2023-02-15T05:11:45;2.40;;;2.40;;
26820;SDS011;37186;51.394;5.454;2023-02-15T05:14:46;2.50;;;2.50;;
26820;SDS011;37186;51.394;5.454;2023-02-15T05:17:46;2.67;;;2.67;;
26820;SDS011;37186;51.394;5.454;2023-02-15T05:20:47;2.40;;;2.40;;
26820;SDS011;37186;51.394;5.454;2023-02-15T05:23:48;2.50;;;2.50;;
26820;SDS011;37186;51.394;5.454;2023-02-15T05:26:49;2.30;;;2.30;;
26820;SDS011;37186;51.394;5.454;2023-02-15T05:30:08;2.30;;;2.30;;
26820;SDS011;37186;51.394;5.454;2023-02-15T05:33:11;2.40;;;2.40;;
26820;SDS011;37186;51.394;5.454;2023-02-15T05:36:11;2.30;;;2.30;;
26820;SDS011;37186;51.394;5.454;2023-02-15T05:39:12;2.40;;;2.40;;
26820;SDS011;37186;51.394;5.454;2023-02-15T05:42:13;2.40;;;2.40;;
26820;SDS011;37186;51.394;5.454;2023-02-15T05:45:13;2.40;;;2.40;;
26820;SDS011;37186;51.394;5.454;2023-02-15T05:48:15;2.50;;;2.50;;
26820;SDS011;37186;51.394;5.454;2023-02-15T05:51:16;2.57;;;2.57;;
26820;SDS011;37186;51.394;5.454;2023-02-15T05:54:17;2.50;;;2.50;;
26820;SDS011;37186;51.394;5.454;2023-02-15T05:57:17;2.47;;;2.47;;
26820;SDS011;37186;51.394;5.454;2023-02-15T06:00:18;2.50;;;2.50;;
26820;SDS011;37186;51.394;5.454;2023-02-15T06:03:18;2.60;;;2.60;;
26820;SDS011;37186;51.394;5.454;2023-02-15T06:06:19;2.67;;;2.67;;
26820;SDS011;37186;51.394;5.454;2023-02-15T06:09:19;2.40;;;2.40;;
26820;SDS011;37186;51.394;5.454;2023-02-15T06:12:20;2.40;;;2.40;;
26820;SDS011;37186;51.394;5.454;2023-02-15T06:15:21;2.20;;;2.20;;
26820;SDS011;37186;51.394;5.454;2023-02-15T06:18:21;2.40;;;2.40;;
26820;SDS011;37186;51.394;5.454;2023-02-15T06:21:22;2.43;;;2.43;;
26820;SDS011;37186;51.394;5.454;2023-02-15T06:24:22;2.40;;;2.40;;
26820;SDS011;37186;51.394;5.454;2023-02-15T06:27:23;2.60;;;2.60;;
26820;SDS011;37186;51.394;5.454;2023-02-15T06:30:23;2.80;;;2.70;;
26820;SDS011;37186;51.394;5.454;2023-02-15T06:33:24;2.43;;;2.43;;
26820;SDS011;37186;51.394;5.454;2023-02-15T06:36:25;2.40;;;2.40;;
26820;SDS011;37186;51.394;5.454;2023-02-15T06:39:25;2.60;;;2.60;;
26820;SDS011;37186;51.394;5.454;2023-02-15T06:42:26;2.50;;;2.50;;
26820;SDS011;37186;51.394;5.454;2023-02-15T06:45:26;2.50;;;2.50;;
26820;SDS011;37186;51.394;5.454;2023-02-15T06:48:27;2.40;;;2.40;;
26820;SDS011;37186;51.394;5.454;2023-02-15T06:51:27;2.50;;;2.50;;
26820;SDS011;37186;51.394;5.454;2023-02-15T06:54:28;2.37;;;2.37;;
26820;SDS011;37186;51.394;5.454;2023-02-15T06:57:28;2.50;;;2.50;;
26820;SDS011;37186;51.394;5.454;2023-02-15T07:00:29;2.50;;;2.50;;
26820;SDS011;37186;51.394;5.454;2023-02-15T07:03:30;2.40;;;2.40;;
26820;SDS011;37186;51.394;5.454;2023-02-15T07:06:31;2.30;;;2.30;;
26820;SDS011;37186;51.394;5.454;2023-02-15T07:09:33;2.37;;;2.37;;
26820;SDS011;37186;51.394;5.454;2023-02-15T07:12:33;2.30;;;2.30;;
26820;SDS011;37186;51.394;5.454;2023-02-15T07:15:44;2.50;;;2.50;;
26820;SDS011;37186;51.394;5.454;2023-02-15T07:18:46;2.40;;;2.40;;
26820;SDS011;37186;51.394;5.454;2023-02-15T07:21:46;2.50;;;2.50;;
26820;SDS011;37186;51.394;5.454;2023-02-15T07:24:47;2.70;;;2.70;;
26820;SDS011;37186;51.394;5.454;2023-02-15T07:27:50;2.40;;;2.40;;
26820;SDS011;37186;51.394;5.454;2023-02-15T07:30:58;2.53;;;2.53;;
26820;SDS011;37186;51.394;5.454;2023-02-15T07:34:02;2.33;;;2.33;;
26820;SDS011;37186;51.394;5.454;2023-02-15T07:37:02;2.60;;;2.60;;
26820;SDS011;37186;51.394;5.454;2023-02-15T07:40:04;2.70;;;2.70;;
26820;SDS011;37186;51.394;5.454;2023-02-15T07:43:05;2.30;;;2.30;;
26820;SDS011;37186;51.394;5.454;2023-02-15T07:46:07;2.50;;;2.50;;
26820;SDS011;37186;51.394;5.454;2023-02-15T07:49:09;2.30;;;2.30;;
26820;SDS011;37186;51.394;5.454;2023-02-15T07:52:10;2.50;;;2.50;;
26820;SDS011;37186;51.394;5.454;2023-02-15T07:55:10;2.40;;;2.40;;
26820;SDS011;37186;51.394;5.454;2023-02-15T07:58:12;2.70;;;2.70;;
26820;SDS011;37186;51.394;5.454;2023-02-15T08:01:13;2.60;;;2.60;;
26820;SDS011;37186;51.394;5.454;2023-02-15T08:04:14;2.30;;;2.30;;
26820;SDS011;37186;51.394;5.454;2023-02-15T08:07:15;2.40;;;2.40;;
26820;SDS011;37186;51.394;5.454;2023-02-15T08:10:15;2.43;;;2.43;;
26820;SDS011;37186;51.394;5.454;2023-02-15T08:13:36;2.40;;;2.40;;
26820;SDS011;37186;51.394;5.454;2023-02-15T08:16:53;2.40;;;2.40;;
26820;SDS011;37186;51.394;5.454;2023-02-15T08:19:55;2.40;;;2.40;;
26820;SDS011;37186;51.394;5.454;2023-02-15T08:22:56;2.70;;;2.70;;
26820;SDS011;37186;51.394;5.454;2023-02-15T08:25:59;2.40;;;2.40;;
26820;SDS011;37186;51.394;5.454;2023-02-15T08:29:00;2.20;;;2.20;;
26820;SDS011;37186;51.394;5.454;2023-02-15T08:32:08;2.50;;;2.50;;
26820;SDS011;37186;51.394;5.454;2023-02-15T08:35:09;2.50;;;2.50;;
26820;SDS011;37186;51.394;5.454;2023-02-15T08:38:10;2.47;;;2.47;;
26820;SDS011;37186;51.394;5.454;2023-02-15T08:44:14;2.60;;;2.60;;
26820;SDS011;37186;51.394;5.454;2023-02-15T08:47:16;2.60;;;2.60;;
26820;SDS011;37186;51.394;5.454;2023-02-15T08:50:17;2.50;;;2.50;;
26820;SDS011;37186;51.394;5.454;2023-02-15T08:53:17;2.40;;;2.40;;
26820;SDS011;37186;51.394;5.454;2023-02-15T08:56:22;2.40;;;2.40;;
26820;SDS011;37186;51.394;5.454;2023-02-15T08:59:25;2.40;;;2.40;;
26820;SDS011;37186;51.394;5.454;2023-02-15T09:02:26;2.60;;;2.60;;
26820;SDS011;37186;51.394;5.454;2023-02-15T09:05:27;2.47;;;2.47;;
26820;SDS011;37186;51.394;5.454;2023-02-15T09:08:28;2.50;;;2.50;;
26820;SDS011;37186;51.394;5.454;2023-02-15T09:11:29;2.50;;;2.50;;
26820;SDS011;37186;51.394;5.454;2023-02-15T09:14:32;2.60;;;2.60;;
26820;SDS011;37186;51.394;5.454;2023-02-15T09:17:33;2.23;;;2.23;;
26820;SDS011;37186;51.394;5.454;2023-02-15T09:20:36;2.40;;;2.40;;
26820;SDS011;37186;51.394;5.454;2023-02-15T09:23:37;2.40;;;2.40;;
26820;SDS011;37186;51.394;5.454;2023-02-15T09:26:38;2.57;;;2.57;;
26820;SDS011;37186;51.394;5.454;2023-02-15T09:29:41;2.50;;;2.50;;
26820;SDS011;37186;51.394;5.454;2023-02-15T09:32:42;2.40;;;2.40;;
26820;SDS011;37186;51.394;5.454;2023-02-15T09:35:42;2.40;;;2.40;;
26820;SDS011;37186;51.394;5.454;2023-02-15T09:38:43;2.30;;;2.30;;
26820;SDS011;37186;51.394;5.454;2023-02-15T09:45:19;2.50;;;2.50;;
26820;SDS011;37186;51.394;5.454;2023-02-15T09:48:41;2.43;;;2.43;;
26820;SDS011;37186;51.394;5.454;2023-02-15T09:52:25;2.23;;;2.23;;
26820;SDS011;37186;51.394;5.454;2023-02-15T10:01:54;2.37;;;2.37;;
26820;SDS011;37186;51.394;5.454;2023-02-15T10:11:56;2.40;;;2.40;;
26820;SDS011;37186;51.394;5.454;2023-02-15T10:15:15;2.50;;;2.50;;
26820;SDS011;37186;51.394;5.454;2023-02-15T10:28:57;2.60;;;2.60;;
26820;SDS011;37186;51.394;5.454;2023-02-15T10:32:26;2.50;;;2.50;;
26820;SDS011;37186;51.394;5.454;2023-02-15T10:43:41;2.60;;;2.60;;
26820;SDS011;37186;51.394;5.454;2023-02-15T10:46:24;2.60;;;2.60;;
26820;SDS011;37186;51.394;5.454;2023-02-15T10:53:21;2.60;;;2.60;;
26820;SDS011;37186;51.394;5.454;2023-02-15T10:56:25;2.60;;;2.60;;
26820;SDS011;37186;51.394;5.454;2023-02-15T10:59:45;2.60;;;2.60;;
26820;SDS011;37186;51.394;5.454;2023-02-15T11:03:02;2.60;;;2.60;;
26820;SDS011;37186;51.394;5.454;2023-02-15T11:06:17;2.43;;;2.43;;
26820;SDS011;37186;51.394;5.454;2023-02-15T11:09:21;2.40;;;2.40;;
26820;SDS011;37186;51.394;5.454;2023-02-15T11:12:24;2.50;;;2.50;;
26820;SDS011;37186;51.394;5.454;2023-02-15T11:18:48;2.60;;;2.60;;
26820;SDS011;37186;51.394;5.454;2023-02-15T11:21:55;2.60;;;2.60;;
26820;SDS011;37186;51.394;5.454;2023-02-15T11:25:01;2.50;;;2.50;;
26820;SDS011;37186;51.394;5.454;2023-02-15T11:28:03;2.73;;;2.67;;
26820;SDS011;37186;51.394;5.454;2023-02-15T11:31:17;2.63;;;2.63;;
26820;SDS011;37186;51.394;5.454;2023-02-15T11:34:26;3.00;;;2.90;;
26820;SDS011;37186;51.394;5.454;2023-02-15T11:37:46;2.73;;;2.70;;
26820;SDS011;37186;51.394;5.454;2023-02-15T11:41:18;2.67;;;2.67;;
26820;SDS011;37186;51.394;5.454;2023-02-15T11:44:25;2.90;;;2.80;;
26820;SDS011;37186;51.394;5.454;2023-02-15T11:47:32;3.00;;;2.90;;
26820;SDS011;37186;51.394;5.454;2023-02-15T11:50:33;3.17;;;3.07;;
26820;SDS011;37186;51.394;5.454;2023-02-15T11:53:35;3.10;;;3.00;;
26820;SDS011;37186;51.394;5.454;2023-02-15T11:56:37;3.20;;;3.10;;
26820;SDS011;37186;51.394;5.454;2023-02-15T11:59:38;3.17;;;3.07;;
26820;SDS011;37186;51.394;5.454;2023-02-15T12:02:44;3.20;;;3.10;;
26820;SDS011;37186;51.394;5.454;2023-02-15T12:05:49;3.10;;;3.00;;
26820;SDS011;37186;51.394;5.454;2023-02-15T12:13:08;3.10;;;3.00;;
26820;SDS011;37186;51.394;5.454;2023-02-15T12:16:11;2.60;;;2.60;;
26820;SDS011;37186;51.394;5.454;2023-02-15T12:22:31;2.40;;;2.40;;
26820;SDS011;37186;51.394;5.454;2023-02-15T12:25:49;2.47;;;2.47;;
26820;SDS011;37186;51.394;5.454;2023-02-15T12:28:53;2.57;;;2.57;;
26820;SDS011;37186;51.394;5.454;2023-02-15T12:31:57;2.50;;;2.50;;
26820;SDS011;37186;51.394;5.454;2023-02-15T12:35:00;2.50;;;2.50;;
26820;SDS011;37186;51.394;5.454;2023-02-15T12:41:24;2.87;;;2.77;;
26820;SDS011;37186;51.394;5.454;2023-02-15T12:44:27;2.90;;;2.80;;
26820;SDS011;37186;51.394;5.454;2023-02-15T12:47:30;2.87;;;2.77;;
26820;SDS011;37186;51.394;5.454;2023-02-15T12:50:31;2.97;;;2.87;;
26820;SDS011;37186;51.394;5.454;2023-02-15T12:53:34;2.93;;;2.83;;
26820;SDS011;37186;51.394;5.454;2023-02-15T12:56:35;3.13;;;3.03;;
26820;SDS011;37186;51.394;5.454;2023-02-15T12:59:36;3.37;;;3.27;;
26820;SDS011;37186;51.394;5.454;2023-02-15T13:05:41;3.33;;;3.23;;
26820;SDS011;37186;51.394;5.454;2023-02-15T13:08:46;3.30;;;3.20;;
26820;SDS011;37186;51.394;5.454;2023-02-15T13:11:50;3.30;;;3.20;;
26820;SDS011;37186;51.394;5.454;2023-02-15T13:14:51;3.07;;;2.97;;
26820;SDS011;37186;51.394;5.454;2023-02-15T13:17:55;3.03;;;2.93;;
26820;SDS011;37186;51.394;5.454;2023-02-15T13:20:59;3.30;;;3.20;;
26820;SDS011;37186;51.394;5.454;2023-02-15T13:24:10;3.22;;;3.13;;
26820;SDS011;37186;51.394;5.454;2023-02-15T13:27:23;3.10;;;3.00;;
26820;SDS011;37186;51.394;5.454;2023-02-15T13:30:38;3.10;;;3.00;;
26820;SDS011;37186;51.394;5.454;2023-02-15T13:33:42;3.30;;;3.20;;
26820;SDS011;37186;51.394;5.454;2023-02-15T13:36:53;3.13;;;3.03;;
26820;SDS011;37186;51.394;5.454;2023-02-15T13:40:12;3.30;;;3.20;;
26820;SDS011;37186;51.394;5.454;2023-02-15T13:53:27;3.10;;;3.00;;
26820;SDS011;37186;51.394;5.454;2023-02-15T14:00:01;3.03;;;2.93;;
26820;SDS011;37186;51.394;5.454;2023-02-15T14:07:05;2.90;;;2.80;;
26820;SDS011;37186;51.394;5.454;2023-02-15T14:13:52;2.90;;;2.80;;
26820;SDS011;37186;51.394;5.454;2023-02-15T14:24:18;3.08;;;2.97;;
26820;SDS011;37186;51.394;5.454;2023-02-15T14:30:55;2.67;;;2.67;;
26820;SDS011;37186;51.394;5.454;2023-02-15T14:33:58;3.17;;;3.08;;
26820;SDS011;37186;51.394;5.454;2023-02-15T14:36:59;3.10;;;3.00;;
26820;SDS011;37186;51.394;5.454;2023-02-15T14:40:02;2.80;;;2.70;;
26820;SDS011;37186;51.394;5.454;2023-02-15T14:43:41;2.90;;;2.80;;
26820;SDS011;37186;51.394;5.454;2023-02-15T14:50:27;3.10;;;3.00;;
26820;SDS011;37186;51.394;5.454;2023-02-15T14:53:47;3.10;;;3.00;;
26820;SDS011;37186;51.394;5.454;2023-02-15T15:00:01;3.20;;;3.10;;
26820;SDS011;37186;51.394;5.454;2023-02-15T15:03:11;3.22;;;3.13;;
26820;SDS011;37186;51.394;5.454;2023-02-15T15:06:38;3.23;;;3.13;;
26820;SDS011;37186;51.394;5.454;2023-02-15T15:09:40;3.00;;;2.90;;
26820;SDS011;37186;51.394;5.454;2023-02-15T15:12:44;3.10;;;3.00;;
26820;SDS011;37186;51.394;5.454;2023-02-15T15:15:54;3.10;;;3.00;;
26820;SDS011;37186;51.394;5.454;2023-02-15T15:18:55;3.10;;;3.00;;
26820;SDS011;37186;51.394;5.454;2023-02-15T15:21:56;3.30;;;3.20;;
26820;SDS011;37186;51.394;5.454;2023-02-15T15:31:38;3.40;;;3.30;;
26820;SDS011;37186;51.394;5.454;2023-02-15T15:34:51;3.47;;;3.37;;
26820;SDS011;37186;51.394;5.454;2023-02-15T15:51:31;3.90;;;3.80;;
26820;SDS011;37186;51.394;5.454;2023-02-15T15:54:33;3.60;;;3.50;;
26820;SDS011;37186;51.394;5.454;2023-02-15T15:57:35;3.50;;;3.40;;
26820;SDS011;37186;51.394;5.454;2023-02-15T16:00:43;3.57;;;3.47;;
26820;SDS011;37186;51.394;5.454;2023-02-15T16:03:51;3.63;;;3.53;;
26820;SDS011;37186;51.394;5.454;2023-02-15T16:06:53;3.80;;;3.70;;
26820;SDS011;37186;51.394;5.454;2023-02-15T16:10:01;3.83;;;3.73;;
26820;SDS011;37186;51.394;5.454;2023-02-15T16:13:06;3.67;;;3.57;;
26820;SDS011;37186;51.394;5.454;2023-02-15T16:16:07;3.83;;;3.73;;
26820;SDS011;37186;51.394;5.454;2023-02-15T16:19:14;3.90;;;3.80;;
26820;SDS011;37186;51.394;5.454;2023-02-15T16:22:20;3.70;;;3.60;;
26820;SDS011;37186;51.394;5.454;2023-02-15T16:28:50;3.67;;;3.57;;
26820;SDS011;37186;51.394;5.454;2023-02-15T16:31:57;3.73;;;3.63;;
26820;SDS011;37186;51.394;5.454;2023-02-15T16:35:02;3.87;;;3.77;;
26820;SDS011;37186;51.394;5.454;2023-02-15T16:38:03;3.53;;;3.43;;
26820;SDS011;37186;51.394;5.454;2023-02-15T16:41:04;3.80;;;3.70;;
26820;SDS011;37186;51.394;5.454;2023-02-15T16:44:12;3.60;;;3.50;;
26820;SDS011;37186;51.394;5.454;2023-02-15T16:47:21;3.60;;;3.50;;
26820;SDS011;37186;51.394;5.454;2023-02-15T16:50:30;3.67;;;3.57;;
26820;SDS011;37186;51.394;5.454;2023-02-15T16:53:33;3.70;;;3.60;;
26820;SDS011;37186;51.394;5.454;2023-02-15T16:56:33;3.43;;;3.33;;
26820;SDS011;37186;51.394;5.454;2023-02-15T16:59:38;3.30;;;3.20;;
26820;SDS011;37186;51.394;5.454;2023-02-15T17:02:52;3.30;;;3.20;;
26820;SDS011;37186;51.394;5.454;2023-02-15T17:06:00;3.20;;;3.10;;
26820;SDS011;37186;51.394;5.454;2023-02-15T17:09:04;3.20;;;3.10;;
26820;SDS011;37186;51.394;5.454;2023-02-15T17:12:08;3.30;;;3.20;;
26820;SDS011;37186;51.394;5.454;2023-02-15T17:15:29;3.33;;;3.23;;
26820;SDS011;37186;51.394;5.454;2023-02-15T17:18:43;3.20;;;3.10;;
26820;SDS011;37186;51.394;5.454;2023-02-15T17:21:49;3.10;;;3.00;;
26820;SDS011;37186;51.394;5.454;2023-02-15T17:24:59;3.07;;;2.97;;
26820;SDS011;37186;51.394;5.454;2023-02-15T17:28:01;3.10;;;3.00;;
26820;SDS011;37186;51.394;5.454;2023-02-15T17:31:02;2.97;;;2.87;;
26820;SDS011;37186;51.394;5.454;2023-02-15T17:34:09;3.07;;;2.97;;
26820;SDS011;37186;51.394;5.454;2023-02-15T17:37:47;2.70;;;2.70;;
26820;SDS011;37186;51.394;5.454;2023-02-15T17:40:49;2.90;;;2.80;;
26820;SDS011;37186;51.394;5.454;2023-02-15T17:43:49;2.73;;;2.70;;
26820;SDS011;37186;51.394;5.454;2023-02-15T17:46:50;3.00;;;2.90;;
26820;SDS011;37186;51.394;5.454;2023-02-15T17:49:50;2.90;;;2.80;;
26820;SDS011;37186;51.394;5.454;2023-02-15T17:52:52;2.93;;;2.83;;
26820;SDS011;37186;51.394;5.454;2023-02-15T17:55:54;2.77;;;2.70;;
26820;SDS011;37186;51.394;5.454;2023-02-15T17:58:54;2.97;;;2.87;;
26820;SDS011;37186;51.394;5.454;2023-02-15T18:01:55;2.70;;;2.70;;
26820;SDS011;37186;51.394;5.454;2023-02-15T18:05:14;3.07;;;2.97;;
26820;SDS011;37186;51.394;5.454;2023-02-15T18:08:34;2.70;;;2.70;;
26820;SDS011;37186;51.394;5.454;2023-02-15T18:11:53;2.80;;;2.70;;
26820;SDS011;37186;51.394;5.454;2023-02-15T18:14:54;2.90;;;2.80;;
26820;SDS011;37186;51.394;5.454;2023-02-15T18:17:55;2.90;;;2.80;;
26820;SDS011;37186;51.394;5.454;2023-02-15T18:20:56;2.90;;;2.80;;
26820;SDS011;37186;51.394;5.454;2023-02-15T18:23:56;2.90;;;2.80;;
26820;SDS011;37186;51.394;5.454;2023-02-15T18:26:57;3.00;;;2.90;;
26820;SDS011;37186;51.394;5.454;2023-02-15T18:29:57;2.90;;;2.80;;
26820;SDS011;37186;51.394;5.454;2023-02-15T18:32:58;2.83;;;2.73;;
26820;SDS011;37186;51.394;5.454;2023-02-15T18:36:00;2.70;;;2.70;;
26820;SDS011;37186;51.394;5.454;2023-02-15T18:39:02;2.80;;;2.70;;
26820;SDS011;37186;51.394;5.454;2023-02-15T18:42:03;2.83;;;2.73;;
26820;SDS011;37186;51.394;5.454;2023-02-15T18:45:17;2.87;;;2.77;;
26820;SDS011;37186;51.394;5.454;2023-02-15T18:48:20;2.70;;;2.70;;
26820;SDS011;37186;51.394;5.454;2023-02-15T18:51:21;2.67;;;2.67;;
26820;SDS011;37186;51.394;5.454;2023-02-15T18:54:22;2.90;;;2.80;;
26820;SDS011;37186;51.394;5.454;2023-02-15T18:57:24;2.77;;;2.70;;
26820;SDS011;37186;51.394;5.454;2023-02-15T19:00:26;2.90;;;2.80;;
26820;SDS011;37186;51.394;5.454;2023-02-15T19:03:29;2.77;;;2.70;;
26820;SDS011;37186;51.394;5.454;2023-02-15T19:06:29;2.57;;;2.57;;
26820;SDS011;37186;51.394;5.454;2023-02-15T19:09:30;3.00;;;2.90;;
26820;SDS011;37186;51.394;5.454;2023-02-15T19:12:31;2.83;;;2.73;;
26820;SDS011;37186;51.394;5.454;2023-02-15T19:15:32;2.90;;;2.80;;
26820;SDS011;37186;51.394;5.454;2023-02-15T19:18:33;3.00;;;2.90;;
26820;SDS011;37186;51.394;5.454;2023-02-15T19:21:33;3.00;;;2.90;;
26820;SDS011;37186;51.394;5.454;2023-02-15T19:24:38;3.00;;;2.90;;
26820;SDS011;37186;51.394;5.454;2023-02-15T19:27:40;3.00;;;2.90;;
26820;SDS011;37186;51.394;5.454;2023-02-15T19:30:41;2.80;;;2.70;;
26820;SDS011;37186;51.394;5.454;2023-02-15T19:33:42;2.60;;;2.60;;
26820;SDS011;37186;51.394;5.454;2023-02-15T19:36:43;2.90;;;2.80;;
26820;SDS011;37186;51.394;5.454;2023-02-15T19:39:46;2.90;;;2.80;;
26820;SDS011;37186;51.394;5.454;2023-02-15T19:42:47;2.80;;;2.70;;
26820;SDS011;37186;51.394;5.454;2023-02-15T19:45:48;2.80;;;2.70;;
26820;SDS011;37186;51.394;5.454;2023-02-15T19:48:51;2.70;;;2.70;;
26820;SDS011;37186;51.394;5.454;2023-02-15T19:51:53;2.90;;;2.80;;
26820;SDS011;37186;51.394;5.454;2023-02-15T19:54:53;3.00;;;2.90;;
26820;SDS011;37186;51.394;5.454;2023-02-15T19:57:55;3.00;;;2.90;;
26820;SDS011;37186;51.394;5.454;2023-02-15T20:00:56;3.03;;;2.93;;
26820;SDS011;37186;51.394;5.454;2023-02-15T20:03:57;3.10;;;3.00;;
26820;SDS011;37186;51.394;5.454;2023-02-15T20:06:59;2.83;;;2.73;;
26820;SDS011;37186;51.394;5.454;2023-02-15T20:10:01;3.00;;;2.90;;
26820;SDS011;37186;51.394;5.454;2023-02-15T20:13:02;3.10;;;3.00;;
26820;SDS011;37186;51.394;5.454;2023-02-15T20:16:03;3.07;;;2.97;;
26820;SDS011;37186;51.394;5.454;2023-02-15T20:19:06;3.00;;;2.90;;
26820;SDS011;37186;51.394;5.454;2023-02-15T20:22:21;3.00;;;2.90;;
26820;SDS011;37186;51.394;5.454;2023-02-15T20:25:27;2.90;;;2.80;;
26820;SDS011;37186;51.394;5.454;2023-02-15T20:28:30;2.80;;;2.70;;
26820;SDS011;37186;51.394;5.454;2023-02-15T20:31:31;2.97;;;2.87;;
26820;SDS011;37186;51.394;5.454;2023-02-15T20:34:31;2.90;;;2.80;;
26820;SDS011;37186;51.394;5.454;2023-02-15T20:37:32;2.80;;;2.70;;
26820;SDS011;37186;51.394;5.454;2023-02-15T20:40:33;2.90;;;2.80;;
26820;SDS011;37186;51.394;5.454;2023-02-15T20:43:34;2.63;;;2.63;;
26820;SDS011;37186;51.394;5.454;2023-02-15T20:46:35;2.73;;;2.70;;
26820;SDS011;37186;51.394;5.454;2023-02-15T20:49:35;2.80;;;2.70;;
26820;SDS011;37186;51.394;5.454;2023-02-15T20:52:44;2.73;;;2.70;;